Terminal Aerodrome Forecast
Issued by NWS

Current Version | Previous Version | Text Only | Print | Product List | Glossary On
Versions: 1 2 3 4 5 6 7 8 9 10 11 12
000
FTUS42 KGSP 300534
TAFAND
TAF
KAND 300534Z 3006/0106 00000KT P6SM SCT150 BKN250
     FM301700 15007KT P6SM SCT040 BKN200 PROB30 3023/0105 4SM -TSRA
      OVC025CB=

USA.gov is the U.S. government's official web portal to all federal, state and local government web resources and services.